Aérodrome :
LOGIN :

S'inscrire | Disclaimer

   EN    FR    IT 

 










Légende :    VFR   VFR Marginal   IFR   IFR Intensif   IFR Très Intensif
Visi : 
Plafond : 
>= 8 km
>= 3000ft
5 à 8 km
1000 à 3000 ft
1500m à 5 km
500 à 1000 ft
800 à 1500m
200 à 500 ft
< 800m
< 200 ft
Symboles :   Orages  Brouillard  Fortes neiges  Fortes précipitations  Vent > 20 kt
SIGMETs :   Divers  Orages  Givrage  Turbulence  Onde Orograph.  Cendres Volcan.







- Altitude de l'aérodrome : 614 ft
- Code IATA : CRL


EBCI - Charleroi

DERNIER METAR :
  • 200820Z 22018KT 9999 FEW018 12/09 Q1010 NOSIG

METARs EXPIRÉS :
  • 200750Z 22015KT 9999 FEW018 12/09 Q1009 NOSIG
  • 200720Z 22015KT 9999 FEW018 12/09 Q1009 NOSIG
  • 200650Z 21015KT 9999 FEW015 12/10 Q1008 NOSIG
  • 200620Z 22015KT 9999 FEW015 12/10 Q1007 NOSIG
  • 200550Z 22016KT 9999 SCT013 BKN017 13/11 Q1007 NOSIG

TAF TAF EBCI
Valide du 20 à 06h jusqu'au 21 à 12h UTC


200510Z 2006/2112 21012KT 9999 SCT040
TEMPO 2009/2015 22015G25KT
TEMPO 2105/2107 4000 RA BKN008
Pas de NOTAMs connus pour ce terrain.
1 SIGMET publié pour la FIR Brussels (EBBU) :
 
Turbulence forte
EBBU SIGMET 01 VALID 200700/200900 EBBR
EBBU BRUSSELS FIR SEV TURB FCST EBBU FL190/350 MOV NE 25KT WKN=



MET'MAP, la Météo Aéronautique d'un coup d'oeil ! - Copyright ORBIFLY Décembre 2007 - Disclaimer

ORBIFLY MET'MAP TEAM :

Programmation & Développement : Alexandra Zaïnal
Conception & Développement : Baudouin d'Aumeries
Co-Programmation & Développement : Marc-Olivier Méhu
Soutien technique & logistique : Manuel Goepfert

Contact : metmap@orbifly.com




SOURCES & CREDITS :

   NOAA